Time;durP1;ratioP1;P1;durP2;ratioP2;P2;SDS_P1;SDS_P2;PMS_P1;PMS_P2;Temp;Humidity;BMP_temperature;BMP_pressure;BME280_temperature;BME280_humidity;BME280_pressure;Samples;Min_cycle;Max_cycle;Signal;HPM_P1;HPM_P2
2021/05/24 00:02:17;;;;;;;5.53;2.60;;;12.00;99.90;;;;;;1908412;74;21163;-83
2021/05/24 00:04:45;;;;;;;12.15;3.55;;;11.90;99.90;;;;;;1908287;74;21479;-83
2021/05/24 00:07:13;;;;;;;9.25;3.50;;;11.90;99.90;;;;;;1905156;74;21085;-83
2021/05/24 00:09:40;;;;;;;10.90;3.33;;;11.90;99.90;;;;;;1908604;74;21060;-82
2021/05/24 00:12:11;;;;;;;8.10;3.27;;;11.80;99.90;;;;;;1926258;73;21054;-83
2021/05/24 00:14:39;;;;;;;6.78;3.45;;;11.80;99.90;;;;;;1930618;73;21030;-82
2021/05/24 00:17:07;;;;;;;12.95;3.42;;;11.90;99.90;;;;;;1927898;73;21135;-83
2021/05/24 00:19:35;;;;;;;7.70;3.65;;;11.90;99.90;;;;;;1925516;73;21077;-82
2021/05/24 00:22:02;;;;;;;9.10;3.30;;;11.80;99.90;;;;;;1927750;73;21019;-82
2021/05/24 00:24:30;;;;;;;9.00;3.05;;;11.80;99.90;;;;;;1928956;73;21124;-82
2021/05/24 00:26:57;;;;;;;6.10;2.95;;;11.80;99.90;;;;;;1929653;73;21097;-82
2021/05/24 00:29:26;;;;;;;8.55;3.40;;;11.80;99.90;;;;;;1928550;73;21082;-83
2021/05/24 00:31:54;;;;;;;7.67;3.45;;;11.90;99.90;;;;;;1929453;73;21136;-82
2021/05/24 00:34:21;;;;;;;7.75;3.20;;;11.90;99.90;;;;;;1931898;73;21093;-82
2021/05/24 00:36:49;;;;;;;7.55;3.22;;;11.90;99.90;;;;;;1928866;73;21030;-83
2021/05/24 00:39:16;;;;;;;8.88;3.52;;;11.80;99.90;;;;;;1930330;73;21499;-83
2021/05/24 00:41:45;;;;;;;11.00;3.60;;;11.90;99.90;;;;;;1928084;73;21109;-83
2021/05/24 00:44:13;;;;;;;10.13;2.98;;;11.80;99.90;;;;;;1924066;73;21063;-83
2021/05/24 00:46:41;;;;;;;7.90;3.12;;;11.80;99.90;;;;;;1927691;73;21030;-83
2021/05/24 00:49:09;;;;;;;8.00;2.90;;;12.00;99.90;;;;;;1927928;73;21077;-83
2021/05/24 00:51:36;;;;;;;9.95;3.15;;;12.10;99.90;;;;;;1929221;73;21070;-82
2021/05/24 00:54:04;;;;;;;6.58;2.98;;;12.10;99.90;;;;;;1931609;73;21073;-83
2021/05/24 00:56:33;;;;;;;9.43;3.00;;;12.00;99.90;;;;;;1928540;73;21077;-82
2021/05/24 00:59:00;;;;;;;6.45;2.77;;;12.00;99.90;;;;;;1930258;73;21069;-83
2021/05/24 01:01:30;;;;;;;10.50;3.52;;;12.10;99.90;;;;;;1929029;73;21093;-82
2021/05/24 01:03:58;;;;;;;6.70;2.95;;;12.20;99.90;;;;;;1924459;73;21182;-83
2021/05/24 01:06:25;;;;;;;6.58;2.67;;;12.20;99.90;;;;;;1926117;73;21217;-82
2021/05/24 01:08:53;;;;;;;6.95;2.67;;;12.20;99.90;;;;;;1929382;73;21127;-83
2021/05/24 01:11:24;;;;;;;8.35;3.10;;;12.30;99.90;;;;;;1927380;73;21085;-82
2021/05/24 01:13:51;;;;;;;5.75;2.55;;;12.40;99.90;;;;;;1930285;73;22651;-83
2021/05/24 01:16:19;;;;;;;5.90;2.40;;;12.30;99.90;;;;;;1927185;73;21379;-83
2021/05/24 01:18:50;;;;;;;8.53;2.90;;;12.30;99.90;;;;;;1929383;73;21218;-82
2021/05/24 01:21:18;;;;;;;7.05;2.60;;;12.40;99.90;;;;;;1926633;73;21117;-83
2021/05/24 01:23:47;;;;;;;10.20;2.95;;;12.30;99.90;;;;;;1927586;73;21104;-83
2021/05/24 01:26:15;;;;;;;9.13;2.67;;;12.30;99.90;;;;;;1926330;73;21062;-83
2021/05/24 01:28:43;;;;;;;8.40;2.70;;;12.30;99.90;;;;;;1924012;73;21076;-83
2021/05/24 01:31:11;;;;;;;7.42;2.47;;;12.30;99.90;;;;;;1927837;73;21121;-83
2021/05/24 01:33:39;;;;;;;7.55;2.22;;;12.50;99.90;;;;;;1930141;73;21081;-83
2021/05/24 01:36:10;;;;;;;4.53;1.98;;;12.60;99.90;;;;;;1927395;73;21117;-83
2021/05/24 01:38:40;;;;;;;4.15;2.37;;;12.60;99.90;;;;;;1928220;73;21194;-84
2021/05/24 01:41:09;;;;;;;5.40;2.15;;;12.50;99.90;;;;;;1925690;73;21129;-85
2021/05/24 01:43:38;;;;;;;11.73;2.62;;;12.50;99.90;;;;;;1928451;73;21634;-84
2021/05/24 01:46:06;;;;;;;12.25;2.35;;;12.40;99.90;;;;;;1925951;73;21077;-85
2021/05/24 01:48:36;;;;;;;7.65;2.55;;;12.40;99.90;;;;;;1927488;73;21198;-85
2021/05/24 01:51:06;;;;;;;5.92;2.50;;;12.50;99.90;;;;;;1928355;73;21082;-85
2021/05/24 01:53:35;;;;;;;7.72;2.42;;;12.80;99.90;;;;;;1932219;73;21046;-84
2021/05/24 01:56:03;;;;;;;8.85;2.30;;;12.70;99.90;;;;;;1927772;73;21023;-81
2021/05/24 01:58:31;;;;;;;7.50;2.45;;;12.50;99.90;;;;;;1930681;73;21215;-81
2021/05/24 02:01:07;;;;;;;7.42;2.60;;;12.50;99.90;;;;;;1926438;73;21038;-81
2021/05/24 02:03:36;;;;;;;5.30;2.10;;;12.30;99.90;;;;;;1928640;73;21175;-81
2021/05/24 02:06:05;;;;;;;9.50;2.72;;;12.50;99.90;;;;;;1932279;73;21046;-81
2021/05/24 02:08:35;;;;;;;6.53;2.20;;;12.40;99.90;;;;;;1929252;73;21023;-80
2021/05/24 02:11:03;;;;;;;6.87;2.05;;;12.30;99.90;;;;;;1930079;73;21051;-81
2021/05/24 02:13:31;;;;;;;7.87;2.25;;;12.30;99.90;;;;;;1931925;73;21088;-83
2021/05/24 02:15:59;;;;;;;5.15;2.20;;;12.20;99.90;;;;;;1925319;73;21009;-81
2021/05/24 02:18:26;;;;;;;6.00;2.25;;;12.20;99.90;;;;;;1930143;73;21073;-81
2021/05/24 02:20:54;;;;;;;4.87;2.20;;;12.20;99.90;;;;;;1928429;73;21284;-81
2021/05/24 02:23:21;;;;;;;6.08;2.30;;;12.20;99.90;;;;;;1929488;73;21026;-82
2021/05/24 02:25:50;;;;;;;7.47;1.80;;;12.20;99.90;;;;;;1931507;73;21042;-81
2021/05/24 02:28:18;;;;;;;6.53;2.33;;;12.20;99.90;;;;;;1929018;73;21069;-81
2021/05/24 02:30:45;;;;;;;4.08;2.10;;;12.20;99.90;;;;;;1929915;73;21218;-81
2021/05/24 02:33:13;;;;;;;4.62;1.90;;;12.30;99.90;;;;;;1927342;73;21120;-81
2021/05/24 02:35:40;;;;;;;3.92;2.00;;;12.30;99.90;;;;;;1929366;73;21166;-82
2021/05/24 02:38:08;;;;;;;5.58;2.15;;;12.40;99.90;;;;;;1930438;73;21093;-81
2021/05/24 02:40:35;;;;;;;8.33;1.90;;;12.40;99.90;;;;;;1927062;73;21102;-81
2021/05/24 02:43:04;;;;;;;4.78;1.98;;;12.40;99.90;;;;;;1928954;73;21019;-81
2021/05/24 02:45:32;;;;;;;7.37;2.12;;;12.40;99.90;;;;;;1931536;73;21182;-82
2021/05/24 02:48:00;;;;;;;6.87;2.05;;;12.30;99.90;;;;;;1929162;73;21128;-81
2021/05/24 02:50:28;;;;;;;10.45;2.20;;;12.30;99.90;;;;;;1926742;73;21575;-81
2021/05/24 02:52:56;;;;;;;5.50;2.20;;;12.40;99.90;;;;;;1931594;73;21057;-81
2021/05/24 02:55:24;;;;;;;8.20;2.25;;;12.40;99.90;;;;;;1929237;73;21070;-81
2021/05/24 02:57:52;;;;;;;7.87;2.05;;;12.30;99.90;;;;;;1929915;73;21716;-80
2021/05/24 03:00:20;;;;;;;7.58;2.12;;;12.30;99.90;;;;;;1932767;73;21030;-81
2021/05/24 03:02:49;;;;;;;6.97;2.33;;;12.50;99.90;;;;;;1929705;73;21034;-81
2021/05/24 03:05:19;;;;;;;11.00;2.17;;;12.50;99.90;;;;;;1931608;73;21105;-82
2021/05/24 03:07:47;;;;;;;7.08;1.98;;;12.40;99.90;;;;;;1930846;73;21163;-82
2021/05/24 03:10:16;;;;;;;6.30;2.27;;;12.40;99.90;;;;;;1929607;73;21115;-81
2021/05/24 03:12:44;;;;;;;4.90;2.08;;;12.20;99.90;;;;;;1926972;73;21104;-81
2021/05/24 03:15:13;;;;;;;6.08;2.30;;;12.20;99.90;;;;;;1926091;73;21081;-84
2021/05/24 03:17:41;;;;;;;4.05;1.95;;;12.10;99.90;;;;;;1929435;73;21082;-82
2021/05/24 03:20:10;;;;;;;4.92;2.00;;;12.10;99.90;;;;;;1931822;73;21027;-83
2021/05/24 03:22:43;;;;;;;10.00;2.40;;;12.10;99.90;;;;;;1929087;73;21147;-82
2021/05/24 03:25:10;;;;;;;5.15;2.08;;;12.10;99.90;;;;;;1930168;73;21047;-82
2021/05/24 03:27:38;;;;;;;4.87;1.92;;;12.20;99.90;;;;;;1927552;73;21100;-84
2021/05/24 03:30:06;;;;;;;5.42;1.82;;;12.20;99.90;;;;;;1931496;73;21159;-84
2021/05/24 03:32:34;;;;;;;7.22;1.67;;;12.20;99.90;;;;;;1930609;73;21015;-83
2021/05/24 03:35:03;;;;;;;7.28;2.10;;;12.30;99.90;;;;;;1929554;73;21022;-83
2021/05/24 03:37:31;;;;;;;7.50;2.05;;;12.40;99.90;;;;;;1929996;73;21058;-84
2021/05/24 03:39:58;;;;;;;6.08;1.80;;;12.40;99.90;;;;;;1932430;73;21112;-83
2021/05/24 03:42:26;;;;;;;4.42;1.70;;;12.40;99.90;;;;;;1929443;73;21131;-83
2021/05/24 03:44:53;;;;;;;6.78;2.10;;;12.10;99.90;;;;;;1928612;73;21038;-83
2021/05/24 03:47:21;;;;;;;4.97;2.00;;;12.10;99.90;;;;;;1929240;73;21022;-83
2021/05/24 03:49:48;;;;;;;5.25;1.92;;;12.10;99.90;;;;;;1929616;73;21018;-84
2021/05/24 03:52:18;;;;;;;3.52;1.70;;;12.10;99.90;;;;;;1930362;73;21026;-83
2021/05/24 03:54:45;;;;;;;9.15;1.77;;;12.20;99.90;;;;;;1924804;73;21134;-84
2021/05/24 03:57:13;;;;;;;3.67;2.08;;;12.30;99.90;;;;;;1925409;73;21042;-85
2021/05/24 03:59:41;;;;;;;6.87;2.20;;;12.40;99.90;;;;;;1929146;73;21038;-85
2021/05/24 04:02:09;;;;;;;4.55;2.05;;;12.30;99.90;;;;;;1926923;73;21096;-86
2021/05/24 04:04:38;;;;;;;3.87;1.82;;;12.30;99.90;;;;;;1928198;73;21152;-84
2021/05/24 04:07:08;;;;;;;5.70;1.90;;;12.20;99.90;;;;;;1926561;73;21593;-83
2021/05/24 04:09:35;;;;;;;8.00;1.87;;;12.20;99.90;;;;;;1926876;73;21344;-84
2021/05/24 04:12:03;;;;;;;6.85;2.22;;;12.10;99.90;;;;;;1927890;73;21066;-83
2021/05/24 04:14:32;;;;;;;4.95;1.80;;;12.10;99.90;;;;;;1924741;73;21091;-83
2021/05/24 04:17:00;;;;;;;6.33;1.87;;;12.10;99.90;;;;;;1920647;73;21552;-85
2021/05/24 04:19:27;;;;;;;5.10;1.82;;;12.30;99.90;;;;;;1927143;73;21480;-83
2021/05/24 04:21:55;;;;;;;6.03;1.90;;;12.40;99.90;;;;;;1923898;73;21241;-83
2021/05/24 04:24:22;;;;;;;5.05;2.12;;;12.40;99.90;;;;;;1925777;73;21465;-83
2021/05/24 04:26:50;;;;;;;5.37;1.80;;;12.30;99.90;;;;;;1923281;73;21092;-84
2021/05/24 04:29:17;;;;;;;8.08;2.02;;;12.40;99.90;;;;;;1924239;73;21089;-83
2021/05/24 04:31:45;;;;;;;3.90;1.92;;;12.50;99.90;;;;;;1924996;73;21097;-82
2021/05/24 04:34:12;;;;;;;5.10;1.65;;;12.30;99.90;;;;;;1921524;73;21120;-83
2021/05/24 04:36:40;;;;;;;4.53;1.47;;;12.30;99.90;;;;;;1924737;73;21143;-83
2021/05/24 04:39:08;;;;;;;6.60;1.80;;;12.30;99.90;;;;;;1926416;73;21089;-83
2021/05/24 04:41:36;;;;;;;6.72;1.82;;;12.30;99.90;;;;;;1923528;73;21175;-83
2021/05/24 04:44:19;;;;;;;5.78;1.72;;;12.20;99.90;;;;;;1924678;73;21090;-83
2021/05/24 04:46:48;;;;;;;7.35;1.80;;;12.30;99.90;;;;;;1923795;73;21113;-82
2021/05/24 04:49:16;;;;;;;6.65;1.90;;;12.50;99.90;;;;;;1919179;73;21259;-83
2021/05/24 04:51:44;;;;;;;4.95;1.75;;;12.50;99.90;;;;;;1920658;73;21101;-83
2021/05/24 04:54:11;;;;;;;9.55;1.80;;;12.40;99.90;;;;;;1923466;73;21019;-83
2021/05/24 04:56:39;;;;;;;5.58;1.70;;;12.50;99.90;;;;;;1924477;73;21155;-82
2021/05/24 04:59:06;;;;;;;3.15;1.62;;;12.30;99.90;;;;;;1926943;73;21081;-85
2021/05/24 05:01:34;;;;;;;5.53;1.65;;;12.20;99.90;;;;;;1924487;73;21101;-86
2021/05/24 05:04:02;;;;;;;4.85;1.87;;;12.30;99.90;;;;;;1925879;73;21323;-85
2021/05/24 05:06:30;;;;;;;8.83;2.00;;;12.30;99.90;;;;;;1921910;73;21097;-83
2021/05/24 05:08:57;;;;;;;7.03;1.72;;;12.30;99.90;;;;;;1923913;73;21093;-83
2021/05/24 05:11:25;;;;;;;8.33;1.85;;;12.30;99.90;;;;;;1909411;72;21153;-83
2021/05/24 05:13:52;;;;;;;3.10;1.50;;;12.40;99.90;;;;;;1877458;75;21198;-83
2021/05/24 05:16:20;;;;;;;8.03;1.95;;;12.50;99.90;;;;;;1873307;75;21388;-83
2021/05/24 05:18:47;;;;;;;4.47;2.15;;;12.50;99.90;;;;;;1872692;76;21103;-83
2021/05/24 05:21:17;;;;;;;8.98;2.00;;;12.60;99.90;;;;;;1873516;75;21120;-82
2021/05/24 05:23:45;;;;;;;5.35;1.60;;;12.60;99.90;;;;;;1871172;76;21193;-82
2021/05/24 05:26:13;;;;;;;7.08;1.82;;;12.60;99.90;;;;;;1871538;76;21100;-83
2021/05/24 05:28:40;;;;;;;6.12;1.42;;;12.50;99.90;;;;;;1866233;75;21549;-82
2021/05/24 05:31:08;;;;;;;3.70;1.45;;;12.60;99.90;;;;;;1868267;75;21118;-82
2021/05/24 05:33:36;;;;;;;8.35;1.70;;;12.50;99.90;;;;;;1870756;76;21092;-82
2021/05/24 05:36:03;;;;;;;3.92;1.50;;;12.40;99.90;;;;;;1869100;76;21107;-83
2021/05/24 05:38:33;;;;;;;1.75;1.15;;;12.50;99.90;;;;;;1867545;76;21173;-80
2021/05/24 05:41:01;;;;;;;4.80;1.42;;;12.70;99.90;;;;;;1871115;75;21091;-82
2021/05/24 05:43:29;;;;;;;5.22;1.30;;;12.70;99.90;;;;;;1869201;76;21138;-82
2021/05/24 05:45:56;;;;;;;6.70;1.42;;;12.60;99.90;;;;;;1871790;76;21528;-82
2021/05/24 05:48:24;;;;;;;4.37;1.27;;;12.70;99.90;;;;;;1869004;76;21075;-82
2021/05/24 05:50:52;;;;;;;5.80;1.42;;;12.70;99.90;;;;;;1867790;76;21902;-82
2021/05/24 05:53:19;;;;;;;8.10;1.62;;;12.90;99.90;;;;;;1871911;75;21098;-82
2021/05/24 05:55:47;;;;;;;6.47;1.60;;;13.00;99.90;;;;;;1868081;75;21387;-82
2021/05/24 05:58:15;;;;;;;5.30;1.22;;;13.10;99.90;;;;;;1867881;75;21054;-82
2021/05/24 06:00:42;;;;;;;4.12;1.32;;;13.00;99.90;;;;;;1873695;75;21659;-82
2021/05/24 06:03:11;;;;;;;2.85;1.17;;;12.80;99.90;;;;;;1871387;75;21580;-82
2021/05/24 06:05:38;;;;;;;4.53;1.20;;;12.90;99.90;;;;;;1869676;75;21197;-82
2021/05/24 06:08:06;;;;;;;4.25;1.02;;;12.90;99.90;;;;;;1866382;75;21079;-81
2021/05/24 06:10:34;;;;;;;5.80;1.45;;;13.10;99.90;;;;;;1868842;75;21142;-81
2021/05/24 06:13:02;;;;;;;3.92;1.57;;;13.10;99.90;;;;;;1876134;75;21121;-81
2021/05/24 06:15:30;;;;;;;3.77;1.20;;;13.30;99.90;;;;;;1873243;75;21575;-82
2021/05/24 06:17:57;;;;;;;6.83;1.10;;;13.40;99.90;;;;;;1875633;76;21152;-82
2021/05/24 06:20:25;;;;;;;3.10;1.12;;;13.30;99.90;;;;;;1871633;76;21104;-82
2021/05/24 06:22:52;;;;;;;7.35;1.20;;;13.40;99.90;;;;;;1872262;75;21074;-82
2021/05/24 06:25:20;;;;;;;2.35;1.20;;;13.40;99.90;;;;;;1877113;76;21663;-82
2021/05/24 06:27:47;;;;;;;11.45;1.35;;;13.50;99.90;;;;;;1873255;76;21162;-81
2021/05/24 06:30:15;;;;;;;7.03;1.27;;;13.50;99.90;;;;;;1873825;76;21622;-82
2021/05/24 06:32:43;;;;;;;2.87;1.00;;;13.60;99.90;;;;;;1876433;76;21156;-82
2021/05/24 06:35:11;;;;;;;2.25;0.93;;;13.70;99.90;;;;;;1877292;76;21128;-82
2021/05/24 06:37:38;;;;;;;4.62;1.12;;;13.70;99.90;;;;;;1876890;76;21791;-82
2021/05/24 06:40:07;;;;;;;3.42;1.05;;;13.80;99.90;;;;;;1866843;76;21120;-81
2021/05/24 06:42:34;;;;;;;2.25;0.85;;;13.90;99.90;;;;;;1873355;76;21116;-82
2021/05/24 06:45:03;;;;;;;2.52;0.93;;;13.90;99.90;;;;;;1880048;75;21598;-81
2021/05/24 06:47:31;;;;;;;2.87;0.80;;;13.90;99.90;;;;;;1872224;76;21156;-82
2021/05/24 06:49:58;;;;;;;3.98;0.98;;;14.10;99.90;;;;;;1869898;76;21178;-82
2021/05/24 06:52:26;;;;;;;3.45;1.05;;;14.10;99.90;;;;;;1875887;76;21588;-82
2021/05/24 06:54:53;;;;;;;5.30;1.50;;;14.10;99.90;;;;;;1874445;76;21100;-82
2021/05/24 06:57:21;;;;;;;3.77;0.80;;;14.10;99.90;;;;;;1876093;76;21109;-81
2021/05/24 06:59:48;;;;;;;2.58;1.12;;;14.10;99.90;;;;;;1872193;76;21073;-82
2021/05/24 07:02:17;;;;;;;6.92;0.98;;;14.20;99.90;;;;;;1874028;76;21631;-82
2021/05/24 07:04:48;;;;;;;3.92;0.90;;;14.20;99.90;;;;;;1876540;76;21140;-82
2021/05/24 07:07:16;;;;;;;3.22;1.10;;;14.20;99.90;;;;;;1879264;76;21499;-82
2021/05/24 07:09:43;;;;;;;2.37;1.07;;;14.30;99.90;;;;;;1876387;76;21093;-82
2021/05/24 07:12:11;;;;;;;3.20;0.88;;;14.30;99.90;;;;;;1876054;76;21140;-82
2021/05/24 07:14:38;;;;;;;2.83;0.90;;;14.40;99.90;;;;;;1874792;76;21085;-82
2021/05/24 07:17:05;;;;;;;3.67;1.10;;;14.40;99.90;;;;;;1873632;76;21096;-82
2021/05/24 07:19:33;;;;;;;4.08;0.80;;;14.50;99.90;;;;;;1874909;76;21105;-82
2021/05/24 07:22:01;;;;;;;3.37;0.95;;;14.60;99.90;;;;;;1874017;76;21664;-82
2021/05/24 07:24:28;;;;;;;3.42;1.07;;;14.80;99.90;;;;;;1875061;76;21120;-82
2021/05/24 07:26:56;;;;;;;2.15;0.90;;;14.90;99.90;;;;;;1870932;76;21061;-82
2021/05/24 07:29:23;;;;;;;2.98;0.93;;;14.90;99.90;;;;;;1875337;76;21101;-83
2021/05/24 07:31:50;;;;;;;2.52;1.02;;;15.00;99.90;;;;;;1876912;76;21124;-83
2021/05/24 07:34:18;;;;;;;5.12;1.00;;;15.10;99.90;;;;;;1875746;76;21153;-83
2021/05/24 07:36:46;;;;;;;2.50;1.00;;;15.00;99.90;;;;;;1877418;75;21167;-83
2021/05/24 07:39:13;;;;;;;3.35;1.05;;;15.10;99.90;;;;;;1877761;76;21065;-83
2021/05/24 07:41:41;;;;;;;4.95;0.90;;;15.20;99.90;;;;;;1879272;76;21140;-84
2021/05/24 07:44:08;;;;;;;3.52;0.90;;;15.30;99.90;;;;;;1877926;76;21065;-83
2021/05/24 07:46:36;;;;;;;1.82;0.65;;;15.30;99.90;;;;;;1875910;76;21097;-83
2021/05/24 07:49:04;;;;;;;4.20;0.60;;;15.40;99.90;;;;;;1874849;76;21195;-83
2021/05/24 07:51:32;;;;;;;5.72;1.25;;;15.50;99.90;;;;;;1876111;76;21148;-82
2021/05/24 07:53:59;;;;;;;5.20;1.00;;;15.60;99.90;;;;;;1875125;76;21159;-83
2021/05/24 07:56:27;;;;;;;2.80;0.90;;;15.70;99.90;;;;;;1880100;75;21108;-85
2021/05/24 07:58:54;;;;;;;1.47;0.68;;;15.80;99.90;;;;;;1875896;75;21129;-83
2021/05/24 08:01:22;;;;;;;7.62;1.20;;;15.90;99.90;;;;;;1875631;76;21073;-83
2021/05/24 08:03:49;;;;;;;2.55;0.72;;;15.90;99.90;;;;;;1877491;76;21097;-83
2021/05/24 08:06:17;;;;;;;4.47;0.93;;;16.00;99.90;;;;;;1875130;76;21476;-82
2021/05/24 08:08:46;;;;;;;5.05;0.82;;;16.10;99.90;;;;;;1874067;76;21124;-83
2021/05/24 08:11:15;;;;;;;4.62;0.80;;;16.00;99.90;;;;;;1879017;75;21113;-83
2021/05/24 08:13:43;;;;;;;3.45;1.12;;;16.00;99.90;;;;;;1876787;75;21116;-83
2021/05/24 08:16:13;;;;;;;3.12;0.80;;;16.10;99.90;;;;;;1878417;76;21155;-83
2021/05/24 08:18:42;;;;;;;3.70;0.80;;;16.30;99.90;;;;;;1875187;76;21262;-83
2021/05/24 08:21:10;;;;;;;5.65;0.80;;;16.40;99.90;;;;;;1876109;76;21226;-83
2021/05/24 08:23:38;;;;;;;2.20;0.75;;;16.50;99.90;;;;;;1878544;76;22293;-83
2021/05/24 08:26:06;;;;;;;6.15;0.90;;;16.60;99.90;;;;;;1876854;76;21585;-82
2021/05/24 08:28:33;;;;;;;4.65;0.78;;;16.70;99.90;;;;;;1877920;76;21182;-82
2021/05/24 08:31:01;;;;;;;4.37;0.80;;;16.70;99.90;;;;;;1877158;76;21236;-83
2021/05/24 08:33:30;;;;;;;6.10;0.98;;;16.70;99.90;;;;;;1876208;76;21124;-83
2021/05/24 08:35:59;;;;;;;2.77;0.75;;;16.70;99.90;;;;;;1878114;76;21648;-83
2021/05/24 08:38:27;;;;;;;3.83;0.90;;;16.70;99.90;;;;;;1879508;76;21125;-83
2021/05/24 08:40:57;;;;;;;4.10;0.88;;;16.80;99.90;;;;;;1877019;76;21723;-83
2021/05/24 08:43:24;;;;;;;1.82;0.90;;;16.90;99.90;;;;;;1876006;76;21090;-82
2021/05/24 08:45:53;;;;;;;5.08;0.93;;;16.90;99.90;;;;;;1874700;76;21127;-83
2021/05/24 08:48:20;;;;;;;4.40;1.02;;;17.10;99.90;;;;;;1873384;76;21089;-82
2021/05/24 08:50:48;;;;;;;2.77;0.90;;;17.10;99.90;;;;;;1874347;76;21132;-82
2021/05/24 08:53:15;;;;;;;4.47;0.70;;;17.20;99.90;;;;;;1873592;76;21140;-82
2021/05/24 08:55:43;;;;;;;5.15;0.90;;;17.20;99.90;;;;;;1877929;76;21121;-83
2021/05/24 08:58:10;;;;;;;5.45;0.70;;;17.20;99.90;;;;;;1876575;76;21136;-83
2021/05/24 09:00:38;;;;;;;2.70;0.80;;;17.20;99.90;;;;;;1874708;76;21650;-82
2021/05/24 09:03:07;;;;;;;5.72;0.82;;;17.40;99.90;;;;;;1875615;76;21138;-83
2021/05/24 09:05:34;;;;;;;3.72;0.70;;;17.40;99.90;;;;;;1873824;76;21202;-83
2021/05/24 09:08:04;;;;;;;5.55;1.45;;;17.60;99.90;;;;;;1874114;76;21108;-82
2021/05/24 09:10:36;;;;;;;3.70;1.07;;;17.70;99.90;;;;;;1875556;76;21270;-83
2021/05/24 09:13:19;;;;;;;4.17;0.80;;;17.70;99.90;;;;;;1876476;76;21471;-82
2021/05/24 09:15:48;;;;;;;3.67;0.90;;;17.80;99.90;;;;;;1882099;76;21140;-83
2021/05/24 09:18:18;;;;;;;2.77;0.60;;;17.80;99.90;;;;;;1875213;76;21660;-82
2021/05/24 09:20:50;;;;;;;3.77;0.68;;;17.90;99.90;;;;;;1873356;76;21128;-83
2021/05/24 09:23:19;;;;;;;2.75;0.70;;;18.10;99.90;;;;;;1875744;76;21148;-83
2021/05/24 09:25:58;;;;;;;4.28;1.20;;;18.10;99.90;;;;;;1868652;76;21112;-82
2021/05/24 09:28:43;;;;;;;3.87;0.85;;;18.20;99.90;;;;;;1874227;76;21132;-83
2021/05/24 09:31:19;;;;;;;3.87;0.85;;;18.30;99.90;;;;;;1875725;76;21144;-83
2021/05/24 09:33:57;;;;;;;4.40;0.95;;;18.40;99.90;;;;;;1875504;76;21139;-82
2021/05/24 09:36:25;;;;;;;1.72;0.57;;;18.50;99.90;;;;;;1877110;76;21223;-83
2021/05/24 09:38:55;;;;;;;4.65;0.80;;;18.50;99.90;;;;;;1878806;76;21050;-83
2021/05/24 09:41:24;;;;;;;3.58;0.90;;;18.60;99.90;;;;;;1879939;76;21619;-83
2021/05/24 09:43:57;;;;;;;4.65;1.00;;;18.70;99.90;;;;;;1876945;76;21202;-83
2021/05/24 09:46:29;;;;;;;2.65;0.60;;;18.80;99.90;;;;;;1875485;76;21076;-83
2021/05/24 09:49:01;;;;;;;7.95;2.52;;;18.80;99.10;;;;;;1876142;76;21069;-83
2021/05/24 09:51:31;;;;;;;5.30;1.00;;;18.80;99.80;;;;;;1877615;75;21202;-83
2021/05/24 09:54:04;;;;;;;3.55;0.60;;;18.90;99.30;;;;;;1874793;76;21069;-83
2021/05/24 09:56:35;;;;;;;5.05;1.05;;;18.90;99.60;;;;;;1874049;76;21285;-83
2021/05/24 09:59:05;;;;;;;5.45;0.68;;;19.00;99.10;;;;;;1876365;76;21037;-83
2021/05/24 10:01:37;;;;;;;6.92;0.88;;;19.10;98.30;;;;;;1875451;76;21148;-83
2021/05/24 10:04:10;;;;;;;2.33;0.75;;;19.20;97.00;;;;;;1875768;76;21468;-83
2021/05/24 10:06:38;;;;;;;1.92;0.60;;;19.30;95.90;;;;;;1871127;76;21097;-83
2021/05/24 10:09:07;;;;;;;2.27;0.60;;;19.30;96.70;;;;;;1875738;76;21120;-83
2021/05/24 10:11:37;;;;;;;5.17;0.82;;;19.40;96.10;;;;;;1871526;76;21073;-83
2021/05/24 10:14:05;;;;;;;6.45;1.02;;;19.60;94.90;;;;;;1874847;76;21668;-83
2021/05/24 10:16:37;;;;;;;5.78;0.70;;;19.70;94.80;;;;;;1874944;76;21160;-83
2021/05/24 10:19:04;;;;;;;4.33;0.90;;;19.70;94.70;;;;;;1871429;76;21122;-84
2021/05/24 10:21:32;;;;;;;2.12;0.70;;;19.70;94.70;;;;;;1877597;76;21202;-85
2021/05/24 10:23:59;;;;;;;10.00;0.90;;;19.80;94.40;;;;;;1872492;76;21053;-83
2021/05/24 10:26:28;;;;;;;2.90;0.90;;;19.80;94.40;;;;;;1871367;76;21187;-83
2021/05/24 10:28:59;;;;;;;3.90;0.80;;;19.80;95.20;;;;;;1874643;76;21089;-83
2021/05/24 10:31:28;;;;;;;4.05;0.75;;;19.80;93.90;;;;;;1873883;76;21159;-84
2021/05/24 10:34:11;;;;;;;3.10;0.70;;;19.80;93.10;;;;;;1876500;76;21303;-84
2021/05/24 10:36:38;;;;;;;;;;;19.70;93.80;;;;;;1878957;76;21098;-84
2021/05/24 10:39:10;;;;;;;5.87;0.98;;;19.50;93.60;;;;;;1874883;75;20081;-83
2021/05/24 10:41:46;;;;;;;3.95;0.68;;;19.60;94.20;;;;;;1883248;76;21058;-83
2021/05/24 10:44:19;;;;;;;3.83;0.60;;;19.60;92.90;;;;;;1880561;76;21022;-83
2021/05/24 10:46:47;;;;;;;1.42;0.45;;;19.50;92.60;;;;;;1873701;76;21115;-83
2021/05/24 10:49:18;;;;;;;1.62;0.60;;;19.20;92.40;;;;;;1880208;76;21127;-83
2021/05/24 10:51:58;;;;;;;4.08;0.60;;;19.10;92.40;;;;;;1881197;76;21089;-83
2021/05/24 10:54:35;;;;;;;1.70;0.80;;;19.20;92.90;;;;;;1881238;76;21089;-83
2021/05/24 10:57:06;;;;;;;2.35;0.70;;;19.50;93.30;;;;;;1869900;76;21117;-83
2021/05/24 10:59:46;;;;;;;3.25;0.57;;;19.60;93.90;;;;;;1874841;76;21116;-83
2021/05/24 11:02:37;;;;;;;1.87;0.45;;;20.00;92.70;;;;;;1878238;76;21168;-82
2021/05/24 11:05:29;;;;;;;3.30;1.12;;;20.30;91.40;;;;;;1895689;75;21044;-83
2021/05/24 11:07:55;;;;;;;1.67;0.60;;;20.40;92.50;;;;;;1887244;75;21060;-84
2021/05/24 11:10:25;;;;;;;5.20;0.60;;;20.50;90.60;;;;;;1891621;75;21568;-84
2021/05/24 11:13:14;;;;;;;3.33;0.90;;;20.60;91.10;;;;;;1950120;70;21114;-85
2021/05/24 11:15:43;;;;;;;3.40;0.53;;;20.80;91.40;;;;;;1953974;73;21552;-84
2021/05/24 11:18:18;;;;;;;5.90;0.70;;;20.80;89.40;;;;;;1957963;73;21171;-84
2021/05/24 11:21:04;;;;;;;2.02;0.80;;;20.80;87.70;;;;;;1963390;73;21100;-87
2021/05/24 11:23:44;;;;;;;2.50;0.60;;;20.80;87.90;;;;;;1922990;73;21090;-87
2021/05/24 11:26:33;;;;;;;2.10;0.60;;;21.00;88.40;;;;;;1933902;74;21110;-86
2021/05/24 11:28:59;;;;;;;2.77;0.60;;;21.20;89.10;;;;;;1931395;74;21130;-86
2021/05/24 11:31:31;;;;;;;1.85;0.50;;;21.40;86.90;;;;;;1936442;74;21126;-84
2021/05/24 11:34:00;;;;;;;2.05;0.47;;;21.60;87.00;;;;;;1935794;74;21110;-85
2021/05/24 11:36:39;;;;;;;6.75;0.95;;;21.80;85.40;;;;;;1935890;72;21521;-84
2021/05/24 11:39:16;;;;;;;3.65;0.55;;;21.90;86.90;;;;;;1932041;74;21043;-84
2021/05/24 11:42:08;;;;;;;3.60;0.65;;;21.90;84.60;;;;;;1933391;73;21161;-84
2021/05/24 11:44:40;;;;;;;0.78;0.30;;;22.10;81.60;;;;;;1935075;73;21367;-85
2021/05/24 11:47:14;;;;;;;6.03;0.72;;;22.00;78.60;;;;;;1933797;74;21248;-84
2021/05/24 11:49:47;;;;;;;2.27;0.70;;;22.10;77.80;;;;;;1932940;74;21194;-85
2021/05/24 11:52:17;;;;;;;2.67;0.65;;;22.10;77.60;;;;;;1934008;73;21083;-84
2021/05/24 11:54:49;;;;;;;3.60;0.82;;;22.20;78.80;;;;;;1934797;74;21112;-85
2021/05/24 11:57:17;;;;;;;2.95;0.65;;;22.40;77.00;;;;;;1935137;73;21214;-87
2021/05/24 11:59:46;;;;;;;3.37;0.95;;;22.40;74.80;;;;;;1935490;74;21094;-86
2021/05/24 12:02:15;;;;;;;1.95;0.98;;;22.10;77.70;;;;;;1934924;73;21208;-82
2021/05/24 12:04:48;;;;;;;4.90;0.50;;;21.90;75.40;;;;;;1934789;74;21074;-83
2021/05/24 12:07:16;;;;;;;1.95;0.68;;;21.70;77.80;;;;;;1934041;72;21121;-83
2021/05/24 12:09:46;;;;;;;2.77;0.50;;;21.60;74.80;;;;;;1933543;74;21098;-78
2021/05/24 12:12:16;;;;;;;3.58;0.62;;;21.70;75.00;;;;;;1931257;72;21195;-82
2021/05/24 12:14:46;;;;;;;2.37;0.50;;;21.50;74.30;;;;;;1935568;73;21587;-79
2021/05/24 12:17:19;;;;;;;2.62;0.50;;;21.50;73.00;;;;;;1931450;74;21172;-83
2021/05/24 12:19:51;;;;;;;5.62;0.65;;;21.60;71.80;;;;;;1934808;74;21093;-83
2021/05/24 12:22:19;;;;;;;3.90;0.50;;;21.50;71.30;;;;;;1931953;73;21186;-79
2021/05/24 12:24:49;;;;;;;2.12;0.50;;;21.40;74.40;;;;;;1935747;74;21552;-79
2021/05/24 12:27:22;;;;;;;2.52;0.60;;;21.30;74.00;;;;;;1935339;74;21041;-78
2021/05/24 12:30:13;;;;;;;5.65;0.82;;;21.10;73.70;;;;;;1929676;73;21074;-78
2021/05/24 12:32:59;;;;;;;2.35;0.62;;;20.90;72.40;;;;;;1931949;73;21167;-78
2021/05/24 12:35:30;;;;;;;1.87;0.60;;;20.80;72.70;;;;;;1932942;73;21154;-77
2021/05/24 12:38:08;;;;;;;1.27;0.47;;;20.70;72.50;;;;;;1932678;74;21161;-78
2021/05/24 12:40:30;;;;;;;1.15;0.50;;;20.60;73.20;;;;;;1931134;72;21725;-78
2021/05/24 12:42:58;;;;;;;4.20;0.70;;;20.70;72.60;;;;;;1932667;73;21188;-78
2021/05/24 12:45:29;;;;;;;4.03;0.70;;;20.70;75.10;;;;;;1933985;73;21603;-78
2021/05/24 12:48:01;;;;;;;1.57;0.47;;;20.60;70.40;;;;;;1934065;74;21089;-78
2021/05/24 12:50:30;;;;;;;1.20;0.50;;;20.50;70.90;;;;;;1929219;74;21152;-78
2021/05/24 12:53:00;;;;;;;1.92;0.75;;;20.40;70.20;;;;;;1934207;73;21067;-78
2021/05/24 12:55:31;;;;;;;3.15;1.07;;;20.40;70.60;;;;;;1928089;74;21086;-78
2021/05/24 12:57:59;;;;;;;1.05;0.55;;;20.30;72.20;;;;;;1933944;74;21652;-77